Volodymyr-Volyns'Kyi, Ukraine
Current Conditions -  °F | °C
As of 3:00 PM on Sunday 21 Dec 2014 (Local Time) from UKLL Reporting Station
Broken Clouds Broken Clouds  
Wind Chill: 28°   Ceiling: 1900
Heat Index: 37°   Visibility: 6mi
Dew Point: 32°   Wind: 18mph
Humidity: 81%   Direction: 280°W
Pressure: 30"   Gusts: NA
Location:  50.83°N, 24.32°E
Report Text: UKLL 211200Z 28008MPS 9999 SCT019CB BKN019 03/M00 Q1016 31210360 TEMPO 29010G15MPS
Loading
Personal Weather Stations






























Interactive Weather Map New forecast layout! Learn more

10-Day Weather Forecast

Advertisements
Track Severe Weather on mobile